Time;durP1;ratioP1;P1;durP2;ratioP2;P2;SDS_P1;SDS_P2;PMS_P1;PMS_P2;Temp;Humidity;BMP_temperature;BMP_pressure;BME280_temperature;BME280_humidity;BME280_pressure;Samples;Min_cycle;Max_cycle;Signal;HPM_P1;HPM_P2
2021/07/07 00:06:31;;;;;;;20.80;19.50;;;;;;;;;;5034818;28;20496;-96
2021/07/07 00:09:04;;;;;;;21.17;19.80;;;;;;;;;;5034532;28;20459;-96
2021/07/07 00:11:36;;;;;;;20.90;19.60;;;;;;;;;;5034653;28;20427;-96
2021/07/07 00:17:15;;;;;;;20.07;18.67;;;;;;;;;;5034563;28;20441;-96
2021/07/07 00:22:46;;;;;;;20.93;19.63;;;;;;;;;;5033270;28;20422;-96
2021/07/07 00:25:21;;;;;;;20.13;18.83;;;;;;;;;;5034301;28;20423;-96
2021/07/07 00:30:50;;;;;;;20.93;19.60;;;;;;;;;;5034577;28;20418;-96
2021/07/07 00:33:19;;;;;;;20.33;18.93;;;;;;;;;;5032702;28;20876;-96
2021/07/07 00:35:47;;;;;;;21.20;19.80;;;;;;;;;;5015793;28;20528;-96
2021/07/07 00:38:15;;;;;;;21.17;19.40;;;;;;;;;;5031066;28;20439;-96
2021/07/07 00:40:43;;;;;;;19.83;18.57;;;;;;;;;;5013526;28;20545;-96
2021/07/07 00:43:11;;;;;;;20.77;19.47;;;;;;;;;;5030236;28;20445;-96
2021/07/07 00:45:39;;;;;;;20.60;19.27;;;;;;;;;;5031227;28;20431;-96
2021/07/07 00:48:10;;;;;;;19.67;18.27;;;;;;;;;;5014454;28;20504;-96
2021/07/07 00:50:46;;;;;;;20.00;19.00;;;;;;;;;;5033448;28;20463;-96
2021/07/07 00:53:14;;;;;;;20.20;18.67;;;;;;;;;;5029777;28;20459;-96
2021/07/07 00:55:42;;;;;;;20.07;18.90;;;;;;;;;;5028805;28;20433;-96
2021/07/07 00:58:12;;;;;;;19.80;18.70;;;;;;;;;;5028598;28;20522;-96
2021/07/07 01:00:40;;;;;;;20.83;19.57;;;;;;;;;;5027801;28;20449;-96
2021/07/07 01:03:10;;;;;;;20.23;18.93;;;;;;;;;;5026050;28;20445;-96
2021/07/07 01:05:39;;;;;;;20.87;19.63;;;;;;;;;;5047371;28;20515;-96
2021/07/07 01:08:09;;;;;;;19.97;18.63;;;;;;;;;;5047319;28;20452;-96
2021/07/07 01:10:38;;;;;;;19.97;18.80;;;;;;;;;;5029836;28;20483;-96
2021/07/07 01:13:05;;;;;;;19.67;18.27;;;;;;;;;;5048616;28;20454;-93
2021/07/07 01:15:34;;;;;;;19.33;18.13;;;;;;;;;;5053055;28;20495;-96
2021/07/07 01:18:02;;;;;;;19.47;18.37;;;;;;;;;;5034827;28;20419;-96
2021/07/07 01:20:30;;;;;;;20.10;18.87;;;;;;;;;;5051482;28;20463;-96
2021/07/07 01:22:59;;;;;;;20.37;19.17;;;;;;;;;;5050104;28;20450;-96
2021/07/07 01:25:27;;;;;;;20.03;18.93;;;;;;;;;;5050619;28;20420;-96
2021/07/07 01:27:57;;;;;;;20.70;19.30;;;;;;;;;;5051814;28;20524;-96
2021/07/07 01:30:25;;;;;;;20.60;18.97;;;;;;;;;;5052019;28;20427;-96
2021/07/07 01:32:53;;;;;;;21.10;19.50;;;;;;;;;;5034253;28;20504;-96
2021/07/07 01:35:22;;;;;;;20.63;19.37;;;;;;;;;;5050663;28;20424;-96
2021/07/07 01:37:49;;;;;;;19.27;18.20;;;;;;;;;;5051304;28;20431;-96
2021/07/07 01:40:20;;;;;;;20.30;19.10;;;;;;;;;;5050915;28;20403;-96
2021/07/07 01:42:48;;;;;;;20.20;18.70;;;;;;;;;;5032417;28;20470;-96
2021/07/07 01:45:17;;;;;;;19.33;18.33;;;;;;;;;;5048504;28;20440;-96
2021/07/07 01:47:45;;;;;;;19.37;18.13;;;;;;;;;;5030438;28;20519;-96
2021/07/07 01:50:15;;;;;;;19.20;18.00;;;;;;;;;;5046904;28;20473;-96
2021/07/07 01:52:43;;;;;;;19.30;18.30;;;;;;;;;;5044485;28;20448;-96
2021/07/07 01:55:12;;;;;;;19.13;18.03;;;;;;;;;;5027074;28;20450;-96
2021/07/07 01:57:45;;;;;;;19.67;18.67;;;;;;;;;;5044420;28;20406;-96
2021/07/07 02:00:14;;;;;;;19.57;18.27;;;;;;;;;;5044665;28;20473;-96
2021/07/07 02:02:42;;;;;;;18.67;17.67;;;;;;;;;;5043792;28;20475;-96
2021/07/07 02:05:10;;;;;;;20.63;19.13;;;;;;;;;;5044544;28;20483;-96
2021/07/07 02:07:38;;;;;;;19.63;18.43;;;;;;;;;;5045763;28;20443;-96
2021/07/07 02:10:08;;;;;;;18.67;17.57;;;;;;;;;;5044708;28;20777;-96
2021/07/07 02:12:36;;;;;;;20.80;19.43;;;;;;;;;;5044720;28;20416;-96
2021/07/07 02:15:06;;;;;;;18.87;17.90;;;;;;;;;;5044627;28;20458;-96
2021/07/07 02:17:34;;;;;;;19.50;18.50;;;;;;;;;;5027960;28;20407;-96
2021/07/07 02:20:02;;;;;;;19.57;18.40;;;;;;;;;;5045244;28;20422;-96
2021/07/07 02:22:30;;;;;;;19.87;18.43;;;;;;;;;;5027990;28;20830;-96
2021/07/07 02:24:57;;;;;;;19.27;18.23;;;;;;;;;;5027425;28;20455;-96
2021/07/07 02:27:25;;;;;;;19.47;18.20;;;;;;;;;;5045507;28;20498;-96
2021/07/07 02:29:53;;;;;;;18.90;17.87;;;;;;;;;;5043048;28;20455;-96
2021/07/07 02:32:24;;;;;;;19.27;18.20;;;;;;;;;;5026276;28;20447;-96
2021/07/07 02:34:51;;;;;;;19.97;18.80;;;;;;;;;;5026793;28;20491;-96
2021/07/07 02:37:19;;;;;;;18.70;17.67;;;;;;;;;;5045188;28;20438;-96
2021/07/07 02:39:47;;;;;;;19.10;18.10;;;;;;;;;;5045987;28;20938;-96
2021/07/07 02:42:16;;;;;;;19.53;18.17;;;;;;;;;;5049031;28;20398;-96
2021/07/07 02:44:48;;;;;;;20.17;18.97;;;;;;;;;;5050377;28;20478;-96
2021/07/07 02:47:16;;;;;;;19.80;18.57;;;;;;;;;;5050603;28;20434;-95
2021/07/07 02:49:45;;;;;;;19.60;18.30;;;;;;;;;;5051270;28;20437;-96
2021/07/07 02:52:13;;;;;;;18.90;17.90;;;;;;;;;;5050246;28;20457;-96
2021/07/07 02:54:40;;;;;;;18.40;17.50;;;;;;;;;;5032071;28;20458;-96
2021/07/07 02:57:08;;;;;;;19.00;17.70;;;;;;;;;;5032627;28;20455;-96
2021/07/07 02:59:36;;;;;;;18.50;17.50;;;;;;;;;;5048731;28;20463;-96
2021/07/07 03:02:04;;;;;;;20.00;18.80;;;;;;;;;;5050178;28;20456;-96
2021/07/07 03:04:32;;;;;;;18.83;17.20;;;;;;;;;;5028368;28;20472;-96
2021/07/07 03:07:01;;;;;;;18.73;17.70;;;;;;;;;;5031603;28;20454;-96
2021/07/07 03:09:28;;;;;;;18.20;17.27;;;;;;;;;;5047447;28;20424;-96
2021/07/07 03:11:58;;;;;;;18.83;17.73;;;;;;;;;;5046488;28;20435;-96
2021/07/07 03:14:27;;;;;;;18.87;17.80;;;;;;;;;;5048270;28;20518;-96
2021/07/07 03:16:55;;;;;;;19.67;18.37;;;;;;;;;;5048003;28;20483;-96
2021/07/07 03:19:23;;;;;;;18.43;17.40;;;;;;;;;;5047064;28;20811;-96
2021/07/07 03:21:51;;;;;;;18.73;17.73;;;;;;;;;;5048969;28;20464;-96
2021/07/07 03:24:22;;;;;;;18.43;17.53;;;;;;;;;;5047330;28;20419;-96
2021/07/07 03:26:50;;;;;;;18.40;17.50;;;;;;;;;;5046111;28;20498;-96
2021/07/07 03:29:18;;;;;;;18.40;17.30;;;;;;;;;;5048711;28;20468;-96
2021/07/07 03:31:45;;;;;;;18.90;17.87;;;;;;;;;;5047914;28;20454;-96
2021/07/07 03:34:13;;;;;;;19.27;17.83;;;;;;;;;;5047852;28;20971;-96
2021/07/07 03:36:41;;;;;;;19.00;17.90;;;;;;;;;;5047350;28;20533;-96
2021/07/07 03:39:09;;;;;;;19.20;17.87;;;;;;;;;;5047634;28;20467;-96
2021/07/07 03:41:40;;;;;;;18.43;17.43;;;;;;;;;;5031799;28;20543;-96
2021/07/07 03:44:12;;;;;;;19.30;18.00;;;;;;;;;;5050102;28;20461;-96
2021/07/07 03:46:40;;;;;;;19.73;18.40;;;;;;;;;;5048880;28;20452;-96
2021/07/07 03:49:08;;;;;;;18.60;17.50;;;;;;;;;;5048327;28;20471;-96
2021/07/07 03:51:39;;;;;;;18.87;17.70;;;;;;;;;;5031572;28;20448;-96
2021/07/07 03:54:07;;;;;;;18.80;17.73;;;;;;;;;;5049876;28;20553;-96
2021/07/07 03:56:36;;;;;;;18.10;17.10;;;;;;;;;;5049587;28;20440;-96
2021/07/07 03:59:13;;;;;;;18.47;17.47;;;;;;;;;;5033121;28;20464;-96
2021/07/07 04:01:43;;;;;;;19.03;18.10;;;;;;;;;;5050062;28;20460;-96
2021/07/07 04:04:22;;;;;;;17.97;17.07;;;;;;;;;;5052417;28;20484;-96
2021/07/07 04:06:50;;;;;;;18.60;17.50;;;;;;;;;;5036341;28;20785;-86
2021/07/07 04:09:19;;;;;;;17.90;17.00;;;;;;;;;;5036316;28;20448;-86
2021/07/07 04:11:50;;;;;;;17.80;16.90;;;;;;;;;;5037791;28;20834;-96
2021/07/07 04:14:23;;;;;;;18.93;17.57;;;;;;;;;;5047313;28;20465;-96
2021/07/07 04:16:52;;;;;;;18.17;17.23;;;;;;;;;;5047647;28;20467;-96
2021/07/07 04:19:19;;;;;;;17.83;16.83;;;;;;;;;;5037878;28;20470;-86
2021/07/07 04:21:47;;;;;;;18.73;17.73;;;;;;;;;;5036205;28;20456;-86
2021/07/07 04:24:15;;;;;;;18.03;17.13;;;;;;;;;;5035904;28;20454;-86
2021/07/07 04:26:43;;;;;;;18.50;17.27;;;;;;;;;;5018710;28;20447;-86
2021/07/07 04:29:11;;;;;;;19.17;17.90;;;;;;;;;;5035968;28;20403;-85
2021/07/07 04:31:41;;;;;;;18.17;17.27;;;;;;;;;;5035975;28;20452;-86
2021/07/07 04:34:08;;;;;;;18.73;17.53;;;;;;;;;;5035515;28;20483;-86
2021/07/07 04:36:36;;;;;;;21.13;20.03;;;;;;;;;;5035664;28;20453;-86
2021/07/07 04:39:05;;;;;;;19.87;18.97;;;;;;;;;;5036188;28;20416;-86
2021/07/07 04:41:32;;;;;;;18.97;18.03;;;;;;;;;;5035817;28;20415;-86
2021/07/07 04:44:00;;;;;;;22.90;21.47;;;;;;;;;;5035717;28;20421;-86
2021/07/07 04:46:27;;;;;;;19.80;18.80;;;;;;;;;;5018284;28;20421;-85
2021/07/07 04:48:56;;;;;;;19.63;18.33;;;;;;;;;;5035621;28;20415;-85
2021/07/07 04:51:23;;;;;;;20.63;19.10;;;;;;;;;;5035580;28;20407;-86
2021/07/07 04:53:51;;;;;;;20.00;19.00;;;;;;;;;;5035258;28;20443;-86
2021/07/07 04:56:19;;;;;;;19.87;18.67;;;;;;;;;;5035393;28;20418;-85
2021/07/07 04:58:46;;;;;;;19.70;18.50;;;;;;;;;;5017962;28;20418;-85
2021/07/07 05:01:14;;;;;;;18.80;17.80;;;;;;;;;;5035417;28;20789;-85
2021/07/07 05:03:42;;;;;;;20.10;18.70;;;;;;;;;;5034737;28;20407;-86
2021/07/07 05:06:11;;;;;;;18.83;17.73;;;;;;;;;;5035246;28;20430;-85
2021/07/07 05:08:38;;;;;;;18.80;17.80;;;;;;;;;;5034867;28;20423;-86
2021/07/07 05:11:05;;;;;;;18.97;17.73;;;;;;;;;;5034993;28;20877;-85
2021/07/07 05:13:33;;;;;;;19.77;18.47;;;;;;;;;;5034853;28;20440;-86
2021/07/07 05:16:00;;;;;;;19.93;18.03;;;;;;;;;;5035444;28;20488;-85
2021/07/07 05:18:28;;;;;;;19.07;18.03;;;;;;;;;;5034901;28;20430;-85
2021/07/07 05:20:55;;;;;;;19.33;17.93;;;;;;;;;;5035718;28;20442;-85
2021/07/07 05:23:24;;;;;;;18.03;16.90;;;;;;;;;;5034830;28;20422;-85
2021/07/07 05:25:51;;;;;;;19.50;18.00;;;;;;;;;;5034368;28;20491;-85
2021/07/07 05:28:19;;;;;;;19.30;18.00;;;;;;;;;;5034682;28;20455;-85
2021/07/07 05:30:46;;;;;;;18.73;17.53;;;;;;;;;;5034701;28;20457;-85
2021/07/07 05:33:14;;;;;;;19.90;18.80;;;;;;;;;;5017301;28;20435;-85
2021/07/07 05:35:41;;;;;;;19.57;18.37;;;;;;;;;;5034680;28;20478;-85
2021/07/07 05:38:10;;;;;;;20.00;18.80;;;;;;;;;;5034779;28;20764;-85
2021/07/07 05:40:39;;;;;;;19.87;18.37;;;;;;;;;;5034741;28;20895;-85
2021/07/07 05:43:06;;;;;;;20.50;18.90;;;;;;;;;;5034044;28;20925;-85
2021/07/07 05:45:33;;;;;;;19.33;17.93;;;;;;;;;;5034479;28;20448;-85
2021/07/07 05:48:01;;;;;;;20.27;19.17;;;;;;;;;;5034229;28;20440;-85
2021/07/07 05:50:28;;;;;;;19.83;18.37;;;;;;;;;;5034777;28;20416;-85
2021/07/07 05:52:56;;;;;;;19.23;18.23;;;;;;;;;;5035151;28;20755;-85
2021/07/07 05:55:24;;;;;;;19.40;18.30;;;;;;;;;;5034114;28;20983;-85
2021/07/07 05:57:53;;;;;;;19.73;18.40;;;;;;;;;;5034397;28;20498;-85
2021/07/07 06:00:21;;;;;;;19.90;18.77;;;;;;;;;;5034460;28;20479;-85
2021/07/07 06:02:51;;;;;;;18.70;17.60;;;;;;;;;;5035020;28;20428;-85
2021/07/07 06:05:19;;;;;;;21.27;19.23;;;;;;;;;;5033629;28;20466;-85
2021/07/07 06:07:47;;;;;;;20.07;18.50;;;;;;;;;;5017319;28;20767;-85
2021/07/07 06:10:15;;;;;;;19.80;18.60;;;;;;;;;;5034153;28;20468;-85
2021/07/07 06:12:43;;;;;;;20.10;18.50;;;;;;;;;;5034011;28;20454;-84
2021/07/07 06:15:14;;;;;;;19.50;18.30;;;;;;;;;;5034375;28;20963;-85
2021/07/07 06:17:41;;;;;;;21.20;19.67;;;;;;;;;;5037883;28;20421;-85
2021/07/07 06:20:10;;;;;;;18.93;17.90;;;;;;;;;;5038332;28;20437;-85
2021/07/07 06:22:37;;;;;;;19.97;18.87;;;;;;;;;;5038910;28;20453;-85
2021/07/07 06:25:05;;;;;;;20.20;18.77;;;;;;;;;;5037845;28;20919;-85
2021/07/07 06:27:34;;;;;;;19.43;18.37;;;;;;;;;;5038203;28;20821;-85
2021/07/07 06:30:01;;;;;;;20.67;19.13;;;;;;;;;;5038154;28;20418;-85
2021/07/07 06:32:30;;;;;;;19.13;17.90;;;;;;;;;;5038201;28;20426;-84
2021/07/07 06:35:01;;;;;;;19.63;18.27;;;;;;;;;;5037831;28;20833;-85
2021/07/07 06:37:28;;;;;;;19.67;18.40;;;;;;;;;;5037952;28;20888;-85
2021/07/07 06:39:56;;;;;;;19.60;18.33;;;;;;;;;;5037650;28;20793;-85
2021/07/07 06:42:23;;;;;;;18.93;17.73;;;;;;;;;;5037847;28;20441;-85
2021/07/07 06:44:51;;;;;;;19.43;17.80;;;;;;;;;;5037485;28;20975;-85
2021/07/07 06:47:18;;;;;;;20.23;18.33;;;;;;;;;;5037732;28;20422;-85
2021/07/07 06:49:47;;;;;;;19.77;18.67;;;;;;;;;;5038677;28;20419;-84
2021/07/07 06:52:16;;;;;;;19.77;18.47;;;;;;;;;;5019836;28;20854;-84
2021/07/07 06:54:43;;;;;;;20.30;19.00;;;;;;;;;;5037455;28;20440;-84
2021/07/07 06:57:10;;;;;;;20.17;19.07;;;;;;;;;;5036904;28;20914;-84
2021/07/07 06:59:38;;;;;;;20.33;19.00;;;;;;;;;;5037088;28;20418;-84
2021/07/07 07:02:05;;;;;;;19.53;18.13;;;;;;;;;;5037077;28;20419;-84
2021/07/07 07:04:33;;;;;;;20.73;19.07;;;;;;;;;;5036938;28;20479;-84
2021/07/07 07:07:02;;;;;;;20.50;19.10;;;;;;;;;;5036936;28;20432;-84
2021/07/07 07:09:29;;;;;;;21.67;19.70;;;;;;;;;;5037162;28;20422;-84
2021/07/07 07:11:57;;;;;;;20.60;18.70;;;;;;;;;;5019543;28;20934;-84
2021/07/07 07:14:24;;;;;;;20.03;18.83;;;;;;;;;;5036778;28;20415;-84
2021/07/07 07:16:52;;;;;;;21.00;19.30;;;;;;;;;;5036379;28;20492;-84
2021/07/07 07:19:19;;;;;;;20.03;18.83;;;;;;;;;;5036723;28;20440;-84
2021/07/07 07:21:46;;;;;;;19.70;18.40;;;;;;;;;;5036946;28;20420;-84
2021/07/07 07:24:15;;;;;;;20.67;19.10;;;;;;;;;;5036834;28;20439;-83
2021/07/07 07:26:43;;;;;;;20.30;19.00;;;;;;;;;;5036040;28;20423;-84
2021/07/07 07:29:10;;;;;;;19.83;18.43;;;;;;;;;;5036635;28;20419;-84
2021/07/07 07:31:37;;;;;;;21.03;19.57;;;;;;;;;;5036442;28;20408;-84
2021/07/07 07:34:05;;;;;;;20.47;19.00;;;;;;;;;;5036657;28;20416;-84
2021/07/07 07:36:32;;;;;;;20.20;19.00;;;;;;;;;;5036200;28;20966;-84
2021/07/07 07:39:00;;;;;;;21.07;19.67;;;;;;;;;;5036688;28;20463;-84
2021/07/07 07:41:31;;;;;;;19.50;18.50;;;;;;;;;;5036764;28;20420;-84
2021/07/07 07:43:58;;;;;;;21.30;19.80;;;;;;;;;;5036658;28;20417;-84
2021/07/07 07:46:29;;;;;;;20.90;19.60;;;;;;;;;;5019347;28;20430;-84
2021/07/07 07:48:58;;;;;;;19.93;18.60;;;;;;;;;;5036607;28;20397;-84
2021/07/07 07:51:26;;;;;;;21.67;19.90;;;;;;;;;;5036412;28;20432;-84
2021/07/07 07:53:53;;;;;;;21.77;20.17;;;;;;;;;;5036939;28;20771;-84
2021/07/07 07:56:21;;;;;;;20.30;19.07;;;;;;;;;;5035739;28;20470;-84
2021/07/07 07:58:50;;;;;;;19.73;18.63;;;;;;;;;;5036138;28;20427;-84
2021/07/07 08:01:17;;;;;;;21.67;20.17;;;;;;;;;;5035903;28;20428;-84
2021/07/07 08:03:44;;;;;;;21.73;19.70;;;;;;;;;;5035639;28;21004;-84
2021/07/07 08:06:12;;;;;;;20.73;19.30;;;;;;;;;;5036359;28;20489;-84
2021/07/07 08:08:40;;;;;;;20.83;19.43;;;;;;;;;;5018333;28;20925;-84
2021/07/07 08:11:07;;;;;;;20.70;19.30;;;;;;;;;;5035802;28;20412;-83
2021/07/07 08:13:37;;;;;;;21.60;19.90;;;;;;;;;;5036320;28;20417;-84
2021/07/07 08:16:06;;;;;;;20.70;19.30;;;;;;;;;;5035564;28;20958;-82
2021/07/07 08:18:34;;;;;;;20.73;19.43;;;;;;;;;;5017651;28;20432;-87
2021/07/07 08:21:01;;;;;;;21.87;20.07;;;;;;;;;;5036251;28;20443;-87
2021/07/07 08:23:29;;;;;;;21.60;19.70;;;;;;;;;;5035789;28;20432;-87
2021/07/07 08:25:56;;;;;;;20.40;19.00;;;;;;;;;;5002199;28;20503;-88
2021/07/07 08:28:23;;;;;;;21.20;19.70;;;;;;;;;;5018319;28;20421;-88
2021/07/07 08:30:51;;;;;;;21.87;20.27;;;;;;;;;;5036374;28;20421;-88
2021/07/07 08:33:20;;;;;;;22.10;20.30;;;;;;;;;;5035597;28;20514;-84
2021/07/07 08:35:47;;;;;;;23.00;20.77;;;;;;;;;;5035551;28;20480;-84
2021/07/07 08:38:15;;;;;;;21.50;20.00;;;;;;;;;;5035267;28;20414;-84
2021/07/07 08:40:42;;;;;;;22.37;20.60;;;;;;;;;;5035240;28;20424;-83
2021/07/07 08:43:10;;;;;;;21.87;20.37;;;;;;;;;;5035127;28;20613;-84
2021/07/07 08:45:37;;;;;;;22.83;21.13;;;;;;;;;;5035418;28;20508;-84
2021/07/07 08:48:05;;;;;;;22.03;20.53;;;;;;;;;;5035187;28;20435;-84
2021/07/07 08:50:36;;;;;;;21.40;19.90;;;;;;;;;;5035033;28;20915;-84
2021/07/07 08:53:05;;;;;;;22.03;20.47;;;;;;;;;;5034993;28;20428;-84
2021/07/07 08:55:34;;;;;;;22.90;21.40;;;;;;;;;;5017567;28;20497;-84
2021/07/07 08:58:01;;;;;;;22.60;21.10;;;;;;;;;;5034966;28;20519;-91
2021/07/07 09:00:31;;;;;;;21.13;19.83;;;;;;;;;;5035117;28;20446;-84
2021/07/07 09:02:59;;;;;;;21.13;19.60;;;;;;;;;;5037014;28;20412;-83
2021/07/07 09:05:29;;;;;;;22.60;21.07;;;;;;;;;;5034582;28;20456;-84
2021/07/07 09:08:04;;;;;;;22.20;20.70;;;;;;;;;;5035125;28;20439;-83
2021/07/07 09:10:32;;;;;;;22.17;20.60;;;;;;;;;;5035140;28;20432;-84
2021/07/07 09:13:09;;;;;;;22.07;20.57;;;;;;;;;;5034978;28;20438;-84
2021/07/07 09:15:37;;;;;;;22.40;20.90;;;;;;;;;;5034582;28;20859;-84
2021/07/07 09:18:05;;;;;;;21.90;20.20;;;;;;;;;;5035281;28;20433;-84
2021/07/07 09:20:37;;;;;;;21.67;20.17;;;;;;;;;;5017276;28;20926;-84
2021/07/07 09:23:16;;;;;;;22.83;21.33;;;;;;;;;;5034740;28;20497;-84
2021/07/07 09:25:47;;;;;;;22.47;21.07;;;;;;;;;;5034569;28;20478;-85
2021/07/07 09:28:17;;;;;;;22.53;20.90;;;;;;;;;;5034492;28;20475;-84
2021/07/07 09:30:44;;;;;;;23.07;21.30;;;;;;;;;;5034635;28;20501;-84
2021/07/07 09:33:12;;;;;;;21.53;20.03;;;;;;;;;;5034937;28;20864;-84
2021/07/07 09:35:41;;;;;;;21.77;20.40;;;;;;;;;;5034435;28;20543;-84
2021/07/07 09:38:09;;;;;;;21.93;20.23;;;;;;;;;;5034301;28;20530;-85
2021/07/07 09:40:42;;;;;;;22.87;21.20;;;;;;;;;;5016864;28;20783;-84
2021/07/07 09:43:09;;;;;;;23.83;22.00;;;;;;;;;;5034430;28;20505;-84
2021/07/07 09:45:42;;;;;;;22.33;20.93;;;;;;;;;;5034260;28;20468;-83
2021/07/07 09:48:11;;;;;;;22.83;21.23;;;;;;;;;;5016398;28;20832;-84
2021/07/07 09:50:38;;;;;;;23.63;21.83;;;;;;;;;;5034120;28;20429;-84
2021/07/07 09:53:05;;;;;;;22.90;21.20;;;;;;;;;;5034121;28;20478;-84
2021/07/07 09:55:33;;;;;;;23.73;22.13;;;;;;;;;;5033751;28;20436;-84
2021/07/07 09:58:02;;;;;;;24.67;22.80;;;;;;;;;;5034244;28;20850;-84
2021/07/07 10:00:37;;;;;;;24.57;22.63;;;;;;;;;;5034438;28;20924;-84
2021/07/07 10:03:05;;;;;;;24.50;22.83;;;;;;;;;;5016592;28;20450;-84
2021/07/07 10:05:38;;;;;;;23.30;21.80;;;;;;;;;;5034031;28;20453;-84
2021/07/07 10:08:06;;;;;;;22.93;21.37;;;;;;;;;;5034087;28;20426;-84
2021/07/07 10:10:34;;;;;;;23.87;21.90;;;;;;;;;;5033868;28;20438;-84
2021/07/07 10:13:03;;;;;;;22.90;21.20;;;;;;;;;;5034000;28;20446;-83
2021/07/07 10:15:30;;;;;;;24.60;22.30;;;;;;;;;;5033831;28;20939;-84
2021/07/07 10:17:58;;;;;;;22.83;21.33;;;;;;;;;;5033358;28;20461;-84
2021/07/07 10:20:25;;;;;;;23.63;21.93;;;;;;;;;;5033898;28;20430;-84
2021/07/07 10:22:53;;;;;;;23.70;22.00;;;;;;;;;;5033749;28;20456;-84
2021/07/07 10:25:22;;;;;;;22.47;20.87;;;;;;;;;;5034079;28;20462;-84
2021/07/07 10:27:53;;;;;;;23.17;21.47;;;;;;;;;;5033877;28;20418;-84
2021/07/07 10:30:22;;;;;;;23.43;21.63;;;;;;;;;;5033446;28;20903;-84
2021/07/07 10:33:06;;;;;;;23.37;21.73;;;;;;;;;;5033821;28;20480;-84
2021/07/07 10:35:33;;;;;;;22.50;20.93;;;;;;;;;;5033807;28;20987;-84
2021/07/07 10:38:03;;;;;;;23.50;21.80;;;;;;;;;;5033953;28;20984;-83
2021/07/07 10:40:31;;;;;;;23.63;21.80;;;;;;;;;;5034017;28;20429;-86
2021/07/07 10:42:59;;;;;;;23.40;21.53;;;;;;;;;;5033490;28;20540;-85
2021/07/07 10:45:35;;;;;;;22.87;21.07;;;;;;;;;;5033614;28;20417;-85
2021/07/07 10:48:21;;;;;;;23.87;22.10;;;;;;;;;;5033701;28;20443;-86
2021/07/07 10:50:48;;;;;;;23.50;21.70;;;;;;;;;;5018183;28;20437;-85
2021/07/07 10:53:23;;;;;;;22.57;21.13;;;;;;;;;;5033745;28;20446;-86
2021/07/07 10:55:50;;;;;;;23.30;21.60;;;;;;;;;;5033472;28;20437;-86
2021/07/07 10:58:25;;;;;;;22.67;21.27;;;;;;;;;;5033624;28;20891;-85
2021/07/07 11:00:54;;;;;;;23.20;21.50;;;;;;;;;;5033892;28;20438;-85
2021/07/07 11:03:32;;;;;;;24.17;22.37;;;;;;;;;;5036583;28;20429;-85
2021/07/07 11:06:01;;;;;;;23.30;21.60;;;;;;;;;;5037532;28;20478;-85
2021/07/07 11:08:30;;;;;;;24.37;22.37;;;;;;;;;;5037129;28;20453;-85
2021/07/07 11:10:58;;;;;;;23.87;21.87;;;;;;;;;;5037722;28;20447;-85
2021/07/07 11:13:27;;;;;;;22.87;21.27;;;;;;;;;;5037114;28;20470;-85
2021/07/07 11:15:56;;;;;;;23.57;21.77;;;;;;;;;;5037300;28;20405;-85
2021/07/07 11:18:26;;;;;;;22.37;20.67;;;;;;;;;;5037305;28;20413;-85
2021/07/07 11:21:00;;;;;;;24.20;22.50;;;;;;;;;;5036839;28;20433;-85
2021/07/07 11:23:28;;;;;;;23.23;21.23;;;;;;;;;;5036858;28;20446;-85
2021/07/07 11:25:55;;;;;;;23.43;21.73;;;;;;;;;;5036828;28;20435;-85
2021/07/07 11:28:23;;;;;;;24.57;22.60;;;;;;;;;;5037191;28;20909;-85
2021/07/07 11:30:50;;;;;;;24.07;21.83;;;;;;;;;;5019544;28;20903;-85
2021/07/07 11:33:19;;;;;;;23.60;22.10;;;;;;;;;;5036707;28;20439;-84
2021/07/07 11:35:47;;;;;;;22.87;21.47;;;;;;;;;;5036896;28;20453;-85
2021/07/07 11:38:16;;;;;;;24.23;22.50;;;;;;;;;;5036845;28;20450;-85
2021/07/07 11:40:44;;;;;;;24.50;22.80;;;;;;;;;;5036809;28;20458;-85
2021/07/07 11:43:13;;;;;;;23.70;22.10;;;;;;;;;;5036537;28;20451;-85
2021/07/07 11:45:41;;;;;;;23.07;21.47;;;;;;;;;;5036820;28;20448;-85
2021/07/07 11:48:12;;;;;;;23.77;21.87;;;;;;;;;;5036435;28;20466;-85
2021/07/07 11:50:43;;;;;;;23.43;21.73;;;;;;;;;;5019142;28;20418;-85
2021/07/07 11:53:10;;;;;;;23.23;21.63;;;;;;;;;;5036748;28;20414;-85
2021/07/07 11:55:58;;;;;;;23.53;21.80;;;;;;;;;;5036317;28;20441;-85
2021/07/07 11:58:27;;;;;;;26.03;23.43;;;;;;;;;;5036339;28;20480;-85
2021/07/07 12:00:56;;;;;;;23.60;21.93;;;;;;;;;;5036299;28;20433;-85
2021/07/07 12:03:24;;;;;;;24.27;22.37;;;;;;;;;;5036031;28;20406;-85
2021/07/07 12:05:57;;;;;;;22.57;21.03;;;;;;;;;;5016569;28;20441;-85
2021/07/07 12:08:25;;;;;;;23.20;21.60;;;;;;;;;;5016283;28;20431;-85
2021/07/07 12:10:53;;;;;;;23.23;21.47;;;;;;;;;;5016566;28;20423;-85
2021/07/07 12:13:25;;;;;;;24.33;22.63;;;;;;;;;;5015172;28;20890;-85
2021/07/07 12:15:52;;;;;;;25.73;23.43;;;;;;;;;;5016143;28;21114;-85
2021/07/07 12:18:30;;;;;;;24.00;22.30;;;;;;;;;;5016024;28;20484;-84
2021/07/07 12:20:59;;;;;;;23.77;21.97;;;;;;;;;;5016375;28;20453;-85
2021/07/07 12:23:26;;;;;;;23.80;21.63;;;;;;;;;;5016297;28;20437;-85
2021/07/07 12:26:03;;;;;;;24.20;22.40;;;;;;;;;;5016223;28;20415;-85
2021/07/07 12:28:31;;;;;;;23.00;21.33;;;;;;;;;;5015812;28;20452;-85
2021/07/07 12:30:59;;;;;;;23.10;21.27;;;;;;;;;;5016203;28;20468;-85
2021/07/07 12:33:30;;;;;;;22.77;21.37;;;;;;;;;;5016036;28;20792;-85
2021/07/07 12:35:59;;;;;;;23.50;22.10;;;;;;;;;;5015076;28;20785;-85
2021/07/07 12:38:27;;;;;;;23.97;22.33;;;;;;;;;;5015847;28;20830;-85
2021/07/07 12:40:55;;;;;;;24.10;22.33;;;;;;;;;;5015618;28;20937;-85
2021/07/07 12:43:40;;;;;;;23.30;21.80;;;;;;;;;;5015869;28;20789;-85
2021/07/07 12:46:07;;;;;;;22.40;20.90;;;;;;;;;;5015138;28;20789;-85
2021/07/07 12:48:49;;;;;;;22.70;21.10;;;;;;;;;;5015505;28;20900;-84
2021/07/07 12:51:25;;;;;;;23.17;21.43;;;;;;;;;;5015542;28;20422;-84
2021/07/07 12:53:52;;;;;;;22.63;21.13;;;;;;;;;;5015191;28;20423;-84
2021/07/07 12:56:21;;;;;;;23.67;22.03;;;;;;;;;;5015416;28;20423;-84
2021/07/07 12:59:03;;;;;;;24.33;22.67;;;;;;;;;;5015486;28;20487;-85
2021/07/07 13:01:31;;;;;;;23.93;21.97;;;;;;;;;;5013667;28;20440;-85
2021/07/07 13:03:59;;;;;;;23.87;22.27;;;;;;;;;;5019442;28;21011;-84
2021/07/07 13:06:28;;;;;;;24.60;22.80;;;;;;;;;;5035142;28;20839;-84
2021/07/07 13:09:01;;;;;;;23.60;22.00;;;;;;;;;;5034814;28;20440;-84
2021/07/07 13:11:29;;;;;;;23.13;21.43;;;;;;;;;;5017074;28;20468;-84
2021/07/07 13:13:58;;;;;;;21.83;20.43;;;;;;;;;;5034622;28;20904;-84
2021/07/07 13:16:26;;;;;;;23.03;21.40;;;;;;;;;;5034123;28;20410;-84
2021/07/07 13:18:59;;;;;;;22.90;21.20;;;;;;;;;;5034814;28;20465;-84
2021/07/07 13:21:35;;;;;;;22.53;20.80;;;;;;;;;;5034309;28;20438;-84
2021/07/07 13:24:03;;;;;;;23.00;21.40;;;;;;;;;;5034912;28;20410;-84
2021/07/07 13:26:38;;;;;;;23.27;21.67;;;;;;;;;;5034021;28;20776;-84
2021/07/07 13:29:15;;;;;;;22.40;21.10;;;;;;;;;;5016837;28;20969;-84
2021/07/07 13:31:43;;;;;;;22.87;21.07;;;;;;;;;;5034381;28;20410;-84
2021/07/07 13:34:11;;;;;;;23.13;21.60;;;;;;;;;;5017120;28;20473;-84
2021/07/07 13:36:40;;;;;;;22.73;21.13;;;;;;;;;;5034107;28;20962;-84
2021/07/07 13:39:08;;;;;;;23.20;21.60;;;;;;;;;;5034180;28;20434;-84
2021/07/07 13:41:36;;;;;;;23.57;21.73;;;;;;;;;;5034316;28;20419;-84
2021/07/07 13:44:03;;;;;;;23.90;22.20;;;;;;;;;;5017026;28;20422;-84
2021/07/07 13:46:31;;;;;;;23.60;22.10;;;;;;;;;;5034341;28;20742;-84
2021/07/07 13:48:59;;;;;;;23.17;21.47;;;;;;;;;;5000673;28;20478;-84
2021/07/07 13:51:27;;;;;;;23.00;21.40;;;;;;;;;;5034266;28;20805;-84
2021/07/07 13:53:55;;;;;;;23.37;21.90;;;;;;;;;;5033930;28;20438;-84
2021/07/07 13:56:23;;;;;;;23.63;21.93;;;;;;;;;;5033876;28;20418;-84
2021/07/07 13:58:50;;;;;;;23.97;22.20;;;;;;;;;;5034010;28;20462;-84
2021/07/07 14:01:18;;;;;;;24.83;22.93;;;;;;;;;;5016913;28;20415;-85
2021/07/07 14:03:45;;;;;;;22.67;21.10;;;;;;;;;;5016779;28;20452;-85
2021/07/07 14:06:13;;;;;;;23.33;21.73;;;;;;;;;;5034289;28;20452;-84
2021/07/07 14:08:40;;;;;;;24.43;22.63;;;;;;;;;;5034133;28;20402;-84
2021/07/07 14:11:09;;;;;;;23.80;22.00;;;;;;;;;;5033791;28;20437;-84
2021/07/07 14:13:36;;;;;;;25.60;23.40;;;;;;;;;;5034147;28;20425;-84
2021/07/07 14:16:04;;;;;;;23.53;21.90;;;;;;;;;;5034404;28;20430;-84
2021/07/07 14:18:32;;;;;;;23.73;22.23;;;;;;;;;;5034084;28;20469;-84
2021/07/07 14:21:00;;;;;;;24.13;22.40;;;;;;;;;;5033972;28;20418;-84
2021/07/07 14:23:27;;;;;;;23.20;21.80;;;;;;;;;;5033973;28;20415;-84
2021/07/07 14:25:55;;;;;;;22.33;21.03;;;;;;;;;;5033707;28;20440;-84
2021/07/07 14:28:24;;;;;;;23.60;22.00;;;;;;;;;;5016425;28;20454;-84
2021/07/07 14:30:51;;;;;;;23.13;21.33;;;;;;;;;;5034082;28;20451;-85
2021/07/07 14:33:18;;;;;;;22.67;20.83;;;;;;;;;;5034014;28;20446;-85
2021/07/07 14:35:46;;;;;;;22.40;20.93;;;;;;;;;;5033806;28;20475;-85
2021/07/07 14:38:14;;;;;;;22.67;21.03;;;;;;;;;;5036603;28;20464;-84
2021/07/07 14:40:41;;;;;;;23.10;21.60;;;;;;;;;;5037354;28;20484;-84